Simsbury, Connecticut
Current Conditions -  °F | °C
As of 7:51 PM on Wednesday 17 Dec 2014 (Local Time) from KBDL Reporting Station
Overcast Overcast  
Wind Chill: 36°   Ceiling: 8000
Heat Index: 42°   Visibility: 10mi
Dew Point: 32°   Wind: 12mph
Humidity: 67%   Direction: 300°WNW
Pressure: 29.81"   Gusts: 21mph
Location:  41.88°N, 72.8°W
Report Text: KBDL 180051Z 30010G18KT 10SM FEW023 FEW065 OVC080 06/00 A2981 RMK AO2 SLP095 T00560000
Loading
Personal Weather Stations






























Interactive Weather Map New forecast layout! Learn more

10-Day Weather Forecast

Advertisements
Track Severe Weather on mobile